Time;durP1;ratioP1;P1;durP2;ratioP2;P2;SDS_P1;SDS_P2;PMS_P1;PMS_P2;Temp;Humidity;BMP_temperature;BMP_pressure;BME280_temperature;BME280_humidity;BME280_pressure;Samples;Min_cycle;Max_cycle;Signal;HPM_P1;HPM_P2
2021/12/23 00:01:10;;;;;;;52.38;23.90;;;;;;;-4.46;82.32;101637.86;1602785;87;21074;-77
2021/12/23 00:03:36;;;;;;;54.35;24.72;;;;;;;-4.46;82.32;101635.73;1622301;87;20981;-77
2021/12/23 00:06:02;;;;;;;;;;;;;;;-4.50;82.26;101633.80;1593053;88;21090;-77
2021/12/23 00:08:28;;;;;;;48.43;22.40;;;;;;;-4.52;82.28;101634.97;1624557;87;20866;-77
2021/12/23 00:10:54;;;;;;;53.70;23.65;;;;;;;-4.54;82.30;101636.52;1635945;87;20905;-77
2021/12/23 00:13:21;;;;;;;49.42;22.30;;;;;;;-4.56;82.27;101643.13;1637934;87;20948;-77
2021/12/23 00:18:42;;;;;;;47.88;22.37;;;;;;;-4.57;82.33;101637.98;1618293;87;20877;-77
2021/12/23 00:23:34;;;;;;;49.20;23.30;;;;;;;-4.71;82.29;101612.81;1618835;87;20933;-77
2021/12/23 00:25:41;;;;;;;52.62;25.15;;;;;;;-4.61;82.34;101629.35;1628130;85;20932;-77
2021/12/23 00:28:06;;;;;;;54.05;24.45;;;;;;;-4.60;82.37;101631.48;1669480;84;22187;-77
2021/12/23 00:30:32;;;;;;;56.55;24.90;;;;;;;-4.60;82.37;101622.66;1684155;84;20898;-77
2021/12/23 00:32:58;;;;;;;56.25;24.15;;;;;;;-4.63;82.29;101617.03;1680530;84;21762;-77
2021/12/23 00:35:25;;;;;;;60.00;25.43;;;;;;;-4.64;82.32;101612.77;1679918;84;20909;-77
2021/12/23 00:37:57;;;;;;;52.53;24.82;;;;;;;-4.64;82.35;101613.16;1663867;84;21402;-77
2021/12/23 00:40:19;;;;;;;54.75;24.12;;;;;;;-4.66;82.32;101613.94;1672646;84;22339;-77
2021/12/23 00:42:45;;;;;;;52.27;24.87;;;;;;;-4.68;82.29;101602.03;1689514;84;22216;-77
2021/12/23 00:45:11;;;;;;;55.75;23.83;;;;;;;-4.69;82.29;101599.03;1679125;84;22637;-77
2021/12/23 00:47:37;;;;;;;45.55;23.30;;;;;;;-4.70;82.27;101590.59;1679312;84;21013;-77
2021/12/23 00:50:05;;;;;;;46.20;22.13;;;;;;;-4.72;82.28;101584.97;1668758;84;21029;-77
2021/12/23 00:52:35;;;;;;;52.95;24.27;;;;;;;-4.73;82.28;101583.22;1674930;85;22227;-77
2021/12/23 00:54:59;;;;;;;49.80;22.70;;;;;;;-4.73;82.32;101582.83;1663828;85;21470;-77
2021/12/23 00:57:29;;;;;;;49.13;24.18;;;;;;;-4.75;82.31;101578.47;1664443;85;20907;-77
2021/12/23 00:59:58;;;;;;;51.37;24.18;;;;;;;-4.74;82.36;101584.88;1675083;85;21031;-77
2021/12/23 01:02:31;;;;;;;53.45;24.43;;;;;;;-4.75;82.34;101584.78;1656096;85;22306;-77
2021/12/23 01:04:53;;;;;;;51.68;24.45;;;;;;;-4.75;82.35;101576.83;1659752;86;22227;-77
2021/12/23 01:07:19;;;;;;;50.05;23.10;;;;;;;-4.76;82.28;101572.95;1674751;85;22202;-77
2021/12/23 01:09:46;;;;;;;53.90;24.77;;;;;;;-4.77;82.28;101574.98;1614921;87;23071;-77
2021/12/23 01:12:14;;;;;;;47.20;23.85;;;;;;;-4.80;82.28;101573.15;1654952;85;21062;-77
2021/12/23 01:14:55;;;;;;;52.90;24.02;;;;;;;-4.82;82.26;101569.66;1609267;87;22158;-77
2021/12/23 01:17:54;;;;;;;49.83;23.02;;;;;;;-4.83;82.29;101572.09;1648129;86;21443;-77
2021/12/23 01:19:50;;;;;;;53.23;23.67;;;;;;;-4.83;82.30;101568.30;1659933;85;20904;-77
2021/12/23 01:22:12;;;;;;;52.50;24.55;;;;;;;-4.83;82.30;101568.30;1657105;85;20962;-77
2021/12/23 01:24:39;;;;;;;53.90;24.98;;;;;;;-4.83;82.35;101566.66;1648052;86;20882;-77
2021/12/23 01:27:05;;;;;;;;;;;;;;;-4.83;82.39;101562.87;1638422;86;21833;-77
2021/12/23 01:29:31;;;;;;;54.25;22.00;;;;;;;-4.82;82.42;101565.00;1625680;87;20871;-77
2021/12/23 01:32:00;;;;;;;52.45;24.25;;;;;;;-4.83;82.36;101556.56;1605184;88;21528;-77
2021/12/23 01:34:25;;;;;;;57.75;24.67;;;;;;;-4.83;82.37;101558.22;1655022;85;20993;-77
2021/12/23 01:36:51;;;;;;;54.33;23.47;;;;;;;-4.85;82.39;101555.60;1657846;85;21694;-77
2021/12/23 01:39:17;;;;;;;51.15;24.00;;;;;;;-4.85;82.41;101548.03;1660120;85;20986;-77
2021/12/23 01:41:43;;;;;;;47.70;23.83;;;;;;;-4.85;82.38;101548.03;1635019;87;21080;-77
2021/12/23 01:44:09;;;;;;;56.10;23.20;;;;;;;-4.87;82.31;101543.28;1635169;86;26636;-77
2021/12/23 01:46:35;;;;;;;52.48;23.30;;;;;;;-4.89;82.32;101543.58;1634284;86;20980;-77
2021/12/23 01:49:01;;;;;;;50.43;24.23;;;;;;;-4.88;82.36;101531.45;1669721;85;21018;-77
2021/12/23 01:51:27;;;;;;;51.30;23.22;;;;;;;-4.90;82.30;101527.09;1677242;85;20888;-77
2021/12/23 01:53:55;;;;;;;52.35;23.98;;;;;;;-4.92;82.27;101521.95;1665139;85;20930;-77
2021/12/23 01:56:24;;;;;;;48.45;23.75;;;;;;;-4.93;82.31;101516.81;1660881;85;20884;-77
2021/12/23 01:58:51;;;;;;;53.00;24.70;;;;;;;-4.95;82.32;101517.12;1667313;85;21488;-77
2021/12/23 02:01:17;;;;;;;50.60;24.72;;;;;;;-4.96;82.34;101515.37;1663376;85;20981;-77
2021/12/23 02:03:43;;;;;;;56.23;24.92;;;;;;;-4.96;82.34;101507.81;1669721;85;20922;-77
2021/12/23 02:06:10;;;;;;;47.60;23.02;;;;;;;-4.98;82.30;101503.93;1662358;85;21376;-77
2021/12/23 02:08:37;;;;;;;53.58;24.32;;;;;;;-5.00;82.28;101495.41;1605522;87;20956;-77
2021/12/23 02:11:06;;;;;;;52.15;24.90;;;;;;;-5.01;82.35;101489.48;1639570;86;20993;-77
2021/12/23 02:13:33;;;;;;;49.58;23.73;;;;;;;-5.01;82.32;101488.23;1614741;87;20970;-77
2021/12/23 02:15:59;;;;;;;54.20;23.55;;;;;;;-5.01;82.35;101485.70;1656107;86;20882;-77
2021/12/23 02:18:26;;;;;;;52.93;23.42;;;;;;;-5.01;82.36;101483.57;1624306;87;20970;-77
2021/12/23 02:20:53;;;;;;;49.67;24.20;;;;;;;-5.02;82.40;101481.44;1652323;86;20961;-77
2021/12/23 02:23:20;;;;;;;47.23;23.22;;;;;;;-5.03;82.35;101490.17;1676633;85;20939;-77
2021/12/23 02:25:46;;;;;;;54.75;23.98;;;;;;;-5.05;82.35;101485.03;1622659;87;20978;-77
2021/12/23 02:28:20;;;;;;;55.28;25.50;;;;;;;-5.03;82.45;101484.73;1630887;87;20929;-77
2021/12/23 02:30:51;;;;;;;52.17;24.18;;;;;;;-5.02;82.50;101483.09;1676577;85;20943;-77
2021/12/23 02:33:15;;;;;;;57.35;26.40;;;;;;;-5.01;82.49;101479.79;1602548;88;20945;-77
2021/12/23 02:35:41;;;;;;;50.95;23.45;;;;;;;-4.98;82.55;101484.14;1641684;86;21027;-77
2021/12/23 02:38:07;;;;;;;56.92;25.48;;;;;;;-4.96;82.59;101472.50;1633842;86;21207;-77
2021/12/23 02:40:38;;;;;;;54.20;24.70;;;;;;;-4.94;82.58;101463.38;1659393;85;20954;-77
2021/12/23 02:43:17;;;;;;;62.80;25.10;;;;;;;-4.93;82.60;101463.86;1675199;85;21011;-77
2021/12/23 02:45:46;;;;;;;51.73;25.12;;;;;;;-4.91;82.61;101456.86;1659503;85;21049;-77
2021/12/23 02:48:17;;;;;;;53.70;23.73;;;;;;;-4.88;82.69;101458.31;1612384;87;21059;-77
2021/12/23 02:50:47;;;;;;;53.45;24.65;;;;;;;-4.86;82.67;101449.18;1661633;85;20985;-77
2021/12/23 02:53:14;;;;;;;56.42;27.02;;;;;;;-4.84;82.63;101440.05;1678843;84;20883;-77
2021/12/23 02:55:40;;;;;;;63.65;26.93;;;;;;;-4.84;82.64;101443.84;1682883;84;21021;-77
2021/12/23 02:58:07;;;;;;;37.83;17.87;;;;;;;-4.81;82.68;101435.19;1689445;84;20978;-77
2021/12/23 03:00:34;;;;;;;53.80;24.52;;;;;;;-4.79;82.67;101434.89;1677791;84;21132;-77
2021/12/23 03:03:00;;;;;;;53.98;25.72;;;;;;;-4.78;82.64;101434.11;1680939;84;20951;-77
2021/12/23 03:05:26;;;;;;;54.53;26.75;;;;;;;-4.76;82.67;101424.11;1686906;84;20937;-77
2021/12/23 03:07:52;;;;;;;52.80;25.12;;;;;;;-4.75;82.69;101417.89;1681609;84;20894;-77
2021/12/23 03:10:22;;;;;;;52.13;24.15;;;;;;;-4.72;82.72;101411.77;1688133;84;20895;-77
2021/12/23 03:12:51;;;;;;;48.23;24.70;;;;;;;-4.69;82.71;101413.59;1683844;84;20938;-77
2021/12/23 03:15:17;;;;;;;56.77;25.90;;;;;;;-4.68;82.69;101410.28;1690634;84;20914;-77
2021/12/23 03:17:43;;;;;;;60.12;25.30;;;;;;;-4.67;82.66;101410.73;1678746;84;21507;-77
2021/12/23 03:20:10;;;;;;;57.55;25.80;;;;;;;-4.69;82.60;101403.11;1691199;84;21014;-77
2021/12/23 03:22:36;;;;;;;58.98;24.65;;;;;;;-4.70;82.58;101398.84;1670007;84;21081;-77
2021/12/23 03:25:03;;;;;;;51.65;24.00;;;;;;;-4.72;82.80;101397.02;1666873;84;21158;-77
2021/12/23 03:27:30;;;;;;;49.55;24.72;;;;;;;-4.72;82.80;101397.02;1686365;84;21093;-77
2021/12/23 03:29:56;;;;;;;54.00;25.62;;;;;;;-4.74;82.54;101403.23;1628177;87;21132;-77
2021/12/23 03:32:24;;;;;;;58.15;24.50;;;;;;;-4.75;82.54;101395.58;1644708;85;21112;-77
2021/12/23 03:34:50;;;;;;;50.85;22.87;;;;;;;-4.76;82.57;101393.45;1687175;84;20927;-77
2021/12/23 03:37:16;;;;;;;51.85;23.45;;;;;;;-4.76;82.58;101393.84;1606596;88;20972;-77
2021/12/23 03:39:42;;;;;;;49.50;23.85;;;;;;;-4.77;82.61;101388.31;1656015;85;20945;-77
2021/12/23 03:42:08;;;;;;;51.77;24.60;;;;;;;-4.77;82.63;101390.44;1609569;87;20913;-77
2021/12/23 03:44:35;;;;;;;51.92;24.40;;;;;;;-4.77;82.57;101382.87;1655680;85;20886;-77
2021/12/23 03:47:01;;;;;;;55.80;24.35;;;;;;;-4.78;82.60;101376.48;1617270;87;20876;-77
2021/12/23 03:49:27;;;;;;;53.08;24.70;;;;;;;-4.78;82.62;101372.70;1622431;87;20884;-77
2021/12/23 03:51:53;;;;;;;56.73;24.67;;;;;;;-4.81;82.58;101373.39;1651037;85;20900;-77
2021/12/23 03:54:19;;;;;;;49.03;25.30;;;;;;;-4.82;82.56;101375.83;1597419;87;20944;-77
2021/12/23 03:56:46;;;;;;;50.45;24.80;;;;;;;-4.84;82.54;101370.69;1634318;86;20922;-77
2021/12/23 03:59:14;;;;;;;51.18;24.72;;;;;;;-4.86;82.55;101367.20;1665087;85;21449;-77
2021/12/23 04:01:41;;;;;;;65.97;25.95;;;;;;;-4.89;82.54;101354.42;1662369;85;20896;-77
2021/12/23 04:04:07;;;;;;;52.33;22.58;;;;;;;-4.90;82.50;101349.29;1667516;85;20892;-77
2021/12/23 04:06:33;;;;;;;48.38;24.00;;;;;;;-4.93;82.45;101356.67;1660849;85;20943;-77
2021/12/23 04:08:59;;;;;;;54.65;25.90;;;;;;;-4.94;82.46;101353.67;1607225;88;20877;-77
2021/12/23 04:11:25;;;;;;;57.08;24.10;;;;;;;-4.97;82.46;101349.71;1641362;86;20913;-77
2021/12/23 04:13:53;;;;;;;;;;;;;;;-5.00;82.50;101344.10;1606676;88;20961;-77
2021/12/23 04:16:20;;;;;;;60.12;25.97;;;;;;;-5.01;82.56;101333.14;1632519;87;20609;-77
2021/12/23 04:18:49;;;;;;;53.35;25.95;;;;;;;-5.02;82.54;101329.27;1640051;86;20941;-77
2021/12/23 04:21:14;;;;;;;56.85;28.42;;;;;;;-5.03;82.54;101319.97;1609698;87;20949;-77
2021/12/23 04:23:41;;;;;;;65.97;28.17;;;;;;;-5.04;82.57;101322.02;1654071;86;20931;-77
2021/12/23 04:26:09;;;;;;;64.15;26.35;;;;;;;-5.03;82.61;101320.84;1598646;87;20916;-77
2021/12/23 04:28:45;;;;;;;55.45;26.82;;;;;;;-5.04;82.60;101305.63;1633626;86;20957;-77
2021/12/23 04:31:05;;;;;;;59.23;27.45;;;;;;;-5.03;82.62;101303.58;1662477;84;20900;-77
2021/12/23 04:33:31;;;;;;;57.45;26.70;;;;;;;-5.02;82.67;101299.02;1666611;85;26719;-77
2021/12/23 04:35:57;;;;;;;62.05;27.87;;;;;;;-5.01;82.67;101292.80;1659326;85;21125;-77
2021/12/23 04:38:23;;;;;;;52.60;26.15;;;;;;;-5.01;82.69;101289.02;1635329;85;20977;-77
2021/12/23 04:40:49;;;;;;;62.25;26.73;;;;;;;-5.00;82.67;101280.67;1652070;85;20896;-77
2021/12/23 04:43:15;;;;;;;61.75;27.48;;;;;;;-5.00;82.65;101280.67;1671586;85;21014;-77
2021/12/23 04:45:41;;;;;;;61.95;28.75;;;;;;;-4.98;82.65;101276.11;1671312;85;20914;-77
2021/12/23 04:48:07;;;;;;;56.68;27.70;;;;;;;-5.00;82.64;101273.50;1614597;87;21008;-76
2021/12/23 04:50:33;;;;;;;65.57;28.10;;;;;;;-5.00;82.67;101270.98;1632766;86;20961;-76
2021/12/23 04:52:59;;;;;;;60.12;26.52;;;;;;;-4.98;82.71;101268.15;1663097;85;21088;-76
2021/12/23 04:55:25;;;;;;;66.40;26.73;;;;;;;-4.97;82.71;101262.33;1674487;85;21066;-76
2021/12/23 04:57:51;;;;;;;58.20;27.25;;;;;;;-4.96;82.70;101264.45;1674565;85;21038;-76
2021/12/23 05:00:21;;;;;;;59.20;26.37;;;;;;;-4.96;82.69;101255.62;1657917;85;20963;-76
2021/12/23 05:02:50;;;;;;;57.27;28.07;;;;;;;-4.94;82.71;101251.54;1659352;85;20993;-76
2021/12/23 05:05:17;;;;;;;57.60;27.27;;;;;;;-4.93;82.71;101240.67;1655827;85;21140;-76
2021/12/23 05:07:44;;;;;;;;;;;;;;;-4.92;82.72;101238.62;1602039;88;21132;-76
2021/12/23 05:10:12;;;;;;;54.55;25.65;;;;;;;-4.91;82.72;101233.67;1595060;88;20103;-76
2021/12/23 05:12:46;;;;;;;66.60;27.00;;;;;;;-4.90;82.72;101234.53;1654493;85;20887;-76
2021/12/23 05:15:16;;;;;;;63.25;27.90;;;;;;;-4.88;82.76;101235.49;1656670;85;20930;-77
2021/12/23 05:17:43;;;;;;;55.67;26.48;;;;;;;-4.86;82.78;101225.09;1649976;85;20941;-77
2021/12/23 05:20:12;;;;;;;56.28;27.22;;;;;;;-4.86;82.74;101218.41;1662323;85;21434;-77
2021/12/23 05:22:38;;;;;;;58.23;26.30;;;;;;;-4.84;82.75;101208.39;1651684;85;20973;-77
2021/12/23 05:25:07;;;;;;;66.07;27.95;;;;;;;-4.85;82.65;101206.27;1652873;85;20909;-78
2021/12/23 05:27:33;;;;;;;60.55;25.75;;;;;;;-4.87;82.64;101205.31;1654169;85;20918;-77
2021/12/23 05:29:59;;;;;;;59.42;27.25;;;;;;;-4.87;82.62;101200.66;1635747;86;20897;-77
2021/12/23 05:32:25;;;;;;;52.62;26.68;;;;;;;-4.89;82.63;101196.80;1609940;87;21010;-77
2021/12/23 05:34:51;;;;;;;58.13;25.92;;;;;;;-4.91;82.58;101202.14;1642697;86;26553;-77
2021/12/23 05:37:17;;;;;;;58.08;26.30;;;;;;;-4.88;82.64;101191.36;1635759;86;21683;-77
2021/12/23 05:39:43;;;;;;;57.23;26.48;;;;;;;-4.89;82.61;101191.75;1654120;86;21035;-77
2021/12/23 05:42:09;;;;;;;60.35;26.60;;;;;;;-4.90;82.59;101195.05;1613414;88;21582;-77
2021/12/23 05:44:35;;;;;;;65.87;28.92;;;;;;;-4.91;82.59;101197.49;1600018;88;21059;-77
2021/12/23 05:47:02;;;;;;;61.70;28.17;;;;;;;-4.89;82.66;101189.63;1628507;87;26261;-77
2021/12/23 05:49:28;;;;;;;61.70;28.55;;;;;;;-4.89;82.63;101183.31;1606451;87;21373;-78
2021/12/23 05:51:54;;;;;;;64.82;27.95;;;;;;;-4.90;82.59;101182.84;1625751;86;21040;-77
2021/12/23 05:54:22;;;;;;;60.88;26.77;;;;;;;-4.91;82.65;101176.92;1632395;86;21163;-77
2021/12/23 05:56:50;;;;;;;55.23;26.55;;;;;;;-4.91;82.72;101173.14;1678130;84;21035;-77
2021/12/23 05:59:16;;;;;;;63.95;27.32;;;;;;;-4.91;82.72;101173.14;1666876;84;21072;-77
2021/12/23 06:01:42;;;;;;;64.07;28.15;;;;;;;-4.91;82.68;101178.58;1619770;87;21018;-77
2021/12/23 06:04:08;;;;;;;62.03;28.30;;;;;;;-4.89;82.70;101176.62;1666687;84;21119;-76
2021/12/23 06:06:34;;;;;;;59.50;26.57;;;;;;;-4.89;82.67;101169.05;1674735;84;21170;-77
2021/12/23 06:09:01;;;;;;;59.98;28.55;;;;;;;-4.89;82.66;101168.18;1675845;84;21080;-77
2021/12/23 06:11:27;;;;;;;57.93;27.65;;;;;;;-4.89;82.72;101160.22;1660535;84;21061;-77
2021/12/23 06:13:53;;;;;;;55.80;26.68;;;;;;;-4.86;82.76;101157.87;1604626;87;21539;-76
2021/12/23 06:16:19;;;;;;;65.47;28.32;;;;;;;-4.84;82.74;101156.69;1670777;84;20929;-77
2021/12/23 06:18:45;;;;;;;64.92;26.95;;;;;;;-4.83;82.76;101150.86;1619931;87;20983;-77
2021/12/23 06:21:11;;;;;;;66.33;27.17;;;;;;;-4.83;82.71;101144.16;1680262;84;21344;-76
2021/12/23 06:23:38;;;;;;;65.00;26.48;;;;;;;-4.82;82.74;101142.52;1651345;84;21708;-76
2021/12/23 06:26:04;;;;;;;63.13;27.35;;;;;;;-4.81;82.77;101151.81;1656462;85;21128;-77
2021/12/23 06:28:30;;;;;;;59.85;28.45;;;;;;;-4.79;82.78;101152.77;1689553;84;21026;-77
2021/12/23 06:30:56;;;;;;;58.85;27.00;;;;;;;-4.76;82.82;101155.45;1615693;87;21115;-77
2021/12/23 06:33:22;;;;;;;63.73;27.60;;;;;;;-4.74;82.88;101150.97;1665771;84;21090;-76
2021/12/23 06:35:48;;;;;;;61.65;28.47;;;;;;;-4.70;82.87;101146.56;1628211;87;20937;-74
2021/12/23 06:38:14;;;;;;;67.42;28.83;;;;;;;-4.68;82.88;101141.59;1674061;84;21127;-76
2021/12/23 06:40:41;;;;;;;64.22;28.92;;;;;;;-4.66;82.88;101138.34;1616583;86;21572;-77
2021/12/23 06:43:08;;;;;;;59.00;26.62;;;;;;;-4.66;82.82;101136.20;1657528;85;20938;-77
2021/12/23 06:45:35;;;;;;;60.23;29.00;;;;;;;-4.65;82.84;101137.95;1672408;84;21005;-77
2021/12/23 06:48:01;;;;;;;60.40;28.23;;;;;;;-4.63;82.86;101129.20;1647097;85;21008;-77
2021/12/23 06:50:27;;;;;;;59.42;27.52;;;;;;;-4.61;82.88;101120.92;1686813;84;21042;-77
2021/12/23 06:52:54;;;;;;;72.32;28.60;;;;;;;-4.60;82.89;101116.34;1628041;87;21496;-76
2021/12/23 06:55:21;;;;;;;62.17;29.00;;;;;;;-4.58;82.86;101113.91;1670308;84;21045;-77
2021/12/23 06:57:53;;;;;;;71.70;29.00;;;;;;;-4.59;82.83;101114.30;1671224;84;23257;-77
2021/12/23 07:00:18;;;;;;;67.08;29.37;;;;;;;-4.57;82.88;101114.38;1621470;85;21071;-76
2021/12/23 07:02:46;;;;;;;75.95;31.50;;;;;;;-4.56;82.88;101115.72;1651850;85;21049;-76
2021/12/23 07:05:13;;;;;;;77.53;31.10;;;;;;;-4.54;82.91;101111.63;1669098;84;21091;-76
2021/12/23 07:08:05;;;;;;;74.70;31.15;;;;;;;-4.53;82.89;101108.31;1670386;84;21487;-76
2021/12/23 07:10:10;;;;;;;77.70;31.20;;;;;;;-4.51;82.90;101095.78;1661325;84;21424;-76
2021/12/23 07:12:37;;;;;;;67.90;29.35;;;;;;;-4.50;82.89;101097.12;1673596;84;20972;-76
2021/12/23 07:15:03;;;;;;;66.75;29.20;;;;;;;-4.50;82.86;101110.12;1608735;87;21150;-75
2021/12/23 07:17:29;;;;;;;79.55;30.77;;;;;;;-4.55;82.85;101102.32;1659437;84;21111;-75
2021/12/23 07:19:55;;;;;;;68.75;29.00;;;;;;;-4.49;82.89;101105.56;1615291;87;20965;-76
2021/12/23 07:22:21;;;;;;;66.28;29.50;;;;;;;-4.47;82.91;101106.51;1663934;84;20903;-76
2021/12/23 07:24:47;;;;;;;72.12;31.57;;;;;;;-4.45;82.92;101104.93;1666051;84;21861;-76
2021/12/23 07:27:13;;;;;;;66.05;27.80;;;;;;;-4.42;82.94;101098.38;1669532;84;21045;-76
2021/12/23 07:29:39;;;;;;;67.47;29.00;;;;;;;-4.40;82.98;101090.89;1611821;87;20931;-76
2021/12/23 07:32:06;;;;;;;64.05;28.75;;;;;;;-4.36;82.99;101083.95;1663557;84;21689;-76
2021/12/23 07:34:33;;;;;;;59.58;28.23;;;;;;;-4.34;82.97;101081.11;1675114;84;21441;-74
2021/12/23 07:36:59;;;;;;;65.85;31.30;;;;;;;-4.32;82.99;101085.84;1671662;84;20902;-74
2021/12/23 07:39:25;;;;;;;69.58;29.55;;;;;;;-4.28;83.02;101093.18;1667290;84;20875;-74
2021/12/23 07:41:51;;;;;;;70.92;29.67;;;;;;;-4.27;82.98;101084.42;1671999;84;20949;-74
2021/12/23 07:44:20;;;;;;;66.20;31.57;;;;;;;-4.26;82.99;101078.59;1676792;84;20984;-74
2021/12/23 07:46:49;;;;;;;67.97;29.60;;;;;;;-4.23;83.00;101081.27;1672514;84;20996;-73
2021/12/23 07:49:16;;;;;;;67.40;28.55;;;;;;;-4.20;83.04;101072.98;1669254;84;21144;-76
2021/12/23 07:51:42;;;;;;;62.25;28.98;;;;;;;-4.18;83.19;101077.31;1667303;84;21040;-76
2021/12/23 07:54:09;;;;;;;55.80;27.58;;;;;;;-4.13;83.07;101083.83;1667623;84;21071;-76
2021/12/23 07:56:35;;;;;;;66.17;28.50;;;;;;;-4.11;83.07;101078.06;1672128;84;21098;-77
2021/12/23 07:59:01;;;;;;;69.10;30.32;;;;;;;-4.07;83.06;101075.30;1676228;84;21132;-77
2021/12/23 08:01:27;;;;;;;69.75;28.77;;;;;;;-4.05;83.06;101070.80;1677042;84;20981;-76
2021/12/23 08:03:53;;;;;;;76.00;30.25;;;;;;;-4.03;83.02;101069.61;1681828;84;20927;-76
2021/12/23 08:06:19;;;;;;;63.87;29.40;;;;;;;-4.02;83.03;101070.95;1681657;84;20937;-76
2021/12/23 08:08:45;;;;;;;63.23;29.27;;;;;;;-3.99;83.06;101070.23;1687457;84;21045;-63
2021/12/23 08:11:12;;;;;;;57.55;29.65;;;;;;;-3.97;83.06;101067.78;1690276;84;23232;-74
2021/12/23 08:13:39;;;;;;;58.90;28.95;;;;;;;-3.93;83.10;101053.25;1673535;84;20891;-75
2021/12/23 08:16:05;;;;;;;59.73;28.52;;;;;;;-3.90;83.11;101048.35;1681226;84;20902;-75
2021/12/23 08:18:32;;;;;;;59.75;28.80;;;;;;;-3.88;83.09;101043.84;1672981;84;20913;-74
2021/12/23 08:20:59;;;;;;;61.73;29.23;;;;;;;-3.86;83.07;101047.70;1669756;84;20931;-75
2021/12/23 08:23:26;;;;;;;64.55;28.85;;;;;;;-3.84;83.09;101044.86;1638949;85;20918;-75
2021/12/23 08:25:54;;;;;;;69.80;31.27;;;;;;;-3.89;83.13;101017.25;1647189;85;21072;-75
2021/12/23 08:28:20;;;;;;;65.97;30.02;;;;;;;-3.75;83.10;101032.67;1619566;85;21040;-76
2021/12/23 08:30:46;;;;;;;63.63;28.83;;;;;;;-3.74;83.09;101027.70;1603377;87;21025;-75
2021/12/23 08:33:12;;;;;;;68.22;30.82;;;;;;;-3.72;83.10;101024.84;1623154;86;21051;-76
2021/12/23 08:35:39;;;;;;;66.40;31.00;;;;;;;-3.65;83.12;101020.08;1641880;85;21587;-76
2021/12/23 08:38:06;;;;;;;;;;;;;;;-3.63;83.13;101009.22;1641978;85;21067;-75
2021/12/23 08:40:33;;;;;;;68.97;31.17;;;;;;;-3.57;82.89;100997.27;1642826;85;20137;-74
2021/12/23 08:43:01;;;;;;;86.35;35.75;;;;;;;-3.57;82.89;100997.27;1647667;85;20934;-74
2021/12/23 08:45:31;;;;;;;76.50;33.88;;;;;;;-3.54;83.14;100999.94;1641585;85;21628;-74
2021/12/23 08:47:57;;;;;;;66.70;30.17;;;;;;;-3.51;83.17;100983.66;1639461;85;21609;-74
2021/12/23 08:50:27;;;;;;;63.65;29.60;;;;;;;-3.47;83.15;100976.28;1643727;85;21564;-74
2021/12/23 08:52:54;;;;;;;63.58;30.02;;;;;;;-3.46;83.15;100965.78;1653607;84;21006;-74
2021/12/23 08:55:22;;;;;;;69.27;30.77;;;;;;;-3.43;83.11;100954.55;1646073;84;21009;-74
2021/12/23 08:57:48;;;;;;;75.05;31.50;;;;;;;-3.40;83.14;100961.87;1665193;84;21500;-75
2021/12/23 09:00:18;;;;;;;71.60;31.65;;;;;;;-3.45;83.13;100949.42;1679952;84;21084;-75
2021/12/23 09:02:46;;;;;;;69.27;29.60;;;;;;;-3.35;83.17;100957.02;1661517;84;21597;-76
2021/12/23 09:05:13;;;;;;;69.85;31.10;;;;;;;-3.31;83.20;100954.23;1676715;84;21710;-76
2021/12/23 09:07:39;;;;;;;66.22;30.15;;;;;;;-3.27;83.22;100951.05;1618784;87;21634;-75
2021/12/23 09:10:07;;;;;;;73.00;32.98;;;;;;;-3.24;83.22;100945.73;1685600;84;21477;-75
2021/12/23 09:12:34;;;;;;;68.25;30.50;;;;;;;-3.19;83.23;100942.14;1694835;84;21481;-75
2021/12/23 09:15:00;;;;;;;60.00;30.75;;;;;;;-3.17;83.20;100938.88;1623565;85;21661;-75
2021/12/23 09:17:27;;;;;;;70.50;30.60;;;;;;;-3.14;83.22;100935.22;1672676;84;21547;-75
2021/12/23 09:19:53;;;;;;;67.15;30.05;;;;;;;-3.11;83.17;100931.94;1677714;84;21316;-76
2021/12/23 09:22:19;;;;;;;64.87;30.80;;;;;;;-3.09;83.22;100918.55;1631401;87;21548;-76
2021/12/23 09:24:47;;;;;;;62.83;29.35;;;;;;;-3.06;83.18;100911.50;1659582;85;21720;-76
2021/12/23 09:27:38;;;;;;;61.40;28.70;;;;;;;-3.03;83.18;100916.69;1668643;84;21594;-76
2021/12/23 09:32:55;;;;;;;61.77;29.77;;;;;;;-2.98;83.18;100897.52;1673647;84;21561;-75
2021/12/23 09:35:24;;;;;;;;;;;;;;;-2.98;83.12;100900.05;1696079;84;21038;-76
2021/12/23 09:37:51;;;;;;;56.77;27.32;;;;;;;-2.95;83.17;100887.93;1696555;84;20521;-75
2021/12/23 09:40:19;;;;;;;63.28;28.83;;;;;;;-2.93;83.06;100875.81;1654685;84;21604;-76
2021/12/23 09:42:47;;;;;;;66.35;30.68;;;;;;;-2.92;83.13;100866.56;1665356;84;21488;-76
2021/12/23 09:45:17;;;;;;;62.08;28.98;;;;;;;-2.92;83.11;100859.83;1680751;84;21479;-76
2021/12/23 09:47:43;;;;;;;64.25;29.20;;;;;;;-2.89;83.18;100853.64;1670775;84;21383;-76
2021/12/23 09:50:14;;;;;;;63.50;29.42;;;;;;;-2.85;83.16;100844.52;1669765;84;21452;-76
2021/12/23 09:52:45;;;;;;;65.87;28.45;;;;;;;-2.81;83.21;100851.02;1667293;84;20994;-76
2021/12/23 09:55:16;;;;;;;59.10;29.55;;;;;;;-2.76;83.25;100850.81;1655564;85;21475;-76
2021/12/23 09:57:46;;;;;;;68.17;31.80;;;;;;;-2.72;83.22;100847.61;1672234;84;21357;-76
2021/12/23 10:00:16;;;;;;;63.48;31.40;;;;;;;-2.68;83.23;100840.61;1627829;87;20873;-76
2021/12/23 10:02:43;;;;;;;68.97;28.90;;;;;;;-2.62;83.24;100840.39;1665954;84;21348;-76
2021/12/23 10:05:15;;;;;;;62.38;29.60;;;;;;;-2.58;83.24;100842.21;1646710;85;21500;-76
2021/12/23 10:07:44;;;;;;;65.85;31.42;;;;;;;-2.54;83.24;100837.73;1684132;84;20945;-76
2021/12/23 10:10:18;;;;;;;65.72;28.45;;;;;;;-2.52;83.21;100834.87;1696393;83;21026;-76
2021/12/23 10:13:10;;;;;;;60.48;28.83;;;;;;;-2.49;83.20;100834.59;1676069;84;21230;-76
2021/12/23 10:32:01;;;;;;;70.78;29.57;;;;;;;-2.33;83.11;100794.28;1668321;84;21062;-78
2021/12/23 10:39:45;;;;;;;59.85;28.95;;;;;;;-2.34;83.13;100763.03;1672655;84;21070;-77
2021/12/23 10:42:22;;;;;;;61.40;28.00;;;;;;;-2.37;83.09;100748.98;1684226;84;21022;-77
2021/12/23 10:44:55;;;;;;;67.05;29.60;;;;;;;-2.40;83.07;100741.67;1679568;84;21108;-77
2021/12/23 10:47:58;;;;;;;65.90;31.55;;;;;;;-2.42;83.08;100734.42;1691298;84;20988;-77
2021/12/23 10:50:36;;;;;;;67.87;30.65;;;;;;;-2.46;83.10;100721.19;1664966;84;20977;-77
2021/12/23 10:53:07;;;;;;;69.45;30.30;;;;;;;-2.46;83.19;100720.78;1695244;84;21049;-77
2021/12/23 10:58:03;;;;;;;61.00;28.80;;;;;;;-2.41;83.25;100693.97;1694747;84;20966;-77
2021/12/23 11:00:41;;;;;;;64.30;30.80;;;;;;;-2.38;83.24;100684.36;1684801;83;20889;-78
2021/12/23 11:03:25;;;;;;;70.87;31.85;;;;;;;-2.35;83.26;100680.27;1679035;84;20991;-77
2021/12/23 11:08:42;;;;;;;63.13;30.17;;;;;;;-2.29;83.29;100670.77;1673866;84;21096;-77
2021/12/23 11:43:59;;;;;;;61.63;28.25;;;;;;;-1.89;83.18;100603.34;1689242;84;20954;-78
2021/12/23 11:46:38;;;;;;;60.70;28.17;;;;;;;-1.85;83.22;100597.97;1674476;85;21095;-77
2021/12/23 11:49:06;;;;;;;64.47;28.62;;;;;;;-1.81;83.22;100593.46;1674875;84;21132;-78
2021/12/23 11:51:51;;;;;;;61.48;27.90;;;;;;;-1.81;83.18;100583.33;1673780;84;21151;-77
2021/12/23 11:54:16;;;;;;;56.85;26.97;;;;;;;-1.78;83.22;100580.89;1664508;84;21038;-78
2021/12/23 11:56:53;;;;;;;63.92;28.83;;;;;;;-1.74;83.23;100579.78;1655818;86;21009;-78
2021/12/23 11:59:20;;;;;;;55.63;27.50;;;;;;;-1.71;83.19;100583.69;1655129;85;20985;-78
2021/12/23 12:01:54;;;;;;;71.50;29.55;;;;;;;-1.68;83.20;100573.64;1648338;86;21038;-78
2021/12/23 12:04:31;;;;;;;55.05;26.65;;;;;;;-1.65;83.19;100565.27;1655120;85;21624;-78
2021/12/23 12:06:58;;;;;;;61.15;26.57;;;;;;;-1.62;83.19;100560.71;1629789;87;21016;-78
2021/12/23 12:09:31;;;;;;;64.05;28.75;;;;;;;-1.59;83.20;100555.73;1624142;87;21065;-78
2021/12/23 12:12:09;;;;;;;60.08;27.77;;;;;;;-1.57;83.12;100549.91;1646121;85;21081;-78
2021/12/23 12:14:42;;;;;;;57.43;27.05;;;;;;;-1.56;83.11;100545.25;1630743;85;21109;-77
2021/12/23 12:17:33;;;;;;;55.67;26.85;;;;;;;-1.56;83.10;100535.55;1630924;86;20967;-78
2021/12/23 12:20:20;;;;;;;55.92;27.02;;;;;;;-1.54;83.12;100535.16;1607903;87;21069;-78
2021/12/23 12:23:13;;;;;;;58.00;25.57;;;;;;;-1.52;83.11;100523.39;1615626;87;20894;-78